RYR69BK LFRS-LFML
Flight info
| Callsign | RYR69BK |
|---|---|
| Flight time | 1h 10m |
| Altitude | 33000 |
| Route | LUGEN UM184 TUPAR DCT DIDRU DCT ADATU DCT LERGA |
| Aircraft | B738/M-SDE3FGILRWY/SB1 |
Departure
| Time | 2026-05-04 17:04 |
|---|---|
| Airport | Nantes Atlantique Airport (LFRS) |
Arrival
| Time | 2026-05-04 18:15 |
|---|---|
| Airport | Marseille Provence Airport (LFML) |
| Time | Latitude | Longitude | Altitude | Speed | Heading |
|---|---|---|---|---|---|
| 2026-05-04 16:21 | 47.15769 | -1.60345 | 89 ft | 0 kts | 127° |
| 2026-05-04 16:52 | 47.15792 | -1.60389 | 89 ft | 4 kts | 127° |
| 2026-05-04 16:52 | 47.15806 | -1.60415 | 88 ft | 4 kts | 141° |
| 2026-05-04 16:53 | 47.15848 | -1.60404 | 89 ft | 4 kts | 218° |
| 2026-05-04 16:53 | 47.15859 | -1.60392 | 90 ft | 0 kts | 207° |
| 2026-05-04 16:56 | 47.15852 | -1.60397 | 88 ft | 3 kts | 207° |
| 2026-05-04 16:57 | 47.15821 | -1.60421 | 91 ft | 7 kts | 207° |
| 2026-05-04 16:57 | 47.15736 | -1.60486 | 88 ft | 7 kts | 208° |
| 2026-05-04 16:58 | 47.15564 | -1.60618 | 91 ft | 10 kts | 208° |
| 2026-05-04 16:58 | 47.15500 | -1.60666 | 90 ft | 11 kts | 207° |
| 2026-05-04 16:59 | 47.15370 | -1.60765 | 91 ft | 10 kts | 208° |
| 2026-05-04 17:00 | 47.15028 | -1.61026 | 89 ft | 14 kts | 207° |
| 2026-05-04 17:00 | 47.14777 | -1.61217 | 89 ft | 13 kts | 208° |
| 2026-05-04 17:01 | 47.14622 | -1.61335 | 90 ft | 13 kts | 207° |
| 2026-05-04 17:01 | 47.14461 | -1.61458 | 88 ft | 13 kts | 207° |
| 2026-05-04 17:02 | 47.14286 | -1.61590 | 87 ft | 15 kts | 207° |
| 2026-05-04 17:02 | 47.14156 | -1.61752 | 85 ft | 12 kts | 256° |
| 2026-05-04 17:03 | 47.14143 | -1.61854 | 83 ft | 7 kts | 277° |
| 2026-05-04 17:03 | 47.14157 | -1.61915 | 84 ft | 5 kts | 297° |
| 2026-05-04 17:03 | 47.14211 | -1.61914 | 87 ft | 5 kts | 27° |
| 2026-05-04 17:04 | 47.14852 | -1.61427 | 90 ft | 116 kts | 27° |
| 2026-05-04 17:04 | 47.16692 | -1.59959 | 805 ft | 164 kts | 31° |
| 2026-05-04 17:05 | 47.17181 | -1.56656 | 1662 ft | 204 kts | 123° |
| 2026-05-04 17:05 | 47.14634 | -1.54489 | 2525 ft | 226 kts | 158° |
| 2026-05-04 17:06 | 47.11605 | -1.52436 | 3197 ft | 260 kts | 153° |
| 2026-05-04 17:06 | 47.09986 | -1.51265 | 4012 ft | 259 kts | 153° |
| 2026-05-04 17:07 | 47.06670 | -1.48832 | 5386 ft | 269 kts | 146° |
| 2026-05-04 17:07 | 47.05692 | -1.47714 | 5892 ft | 271 kts | 136° |
| 2026-05-04 17:07 | 47.03819 | -1.45113 | 6756 ft | 281 kts | 135° |
| 2026-05-04 17:07 | 47.02393 | -1.43175 | 7638 ft | 278 kts | 136° |
| 2026-05-04 17:08 | 47.00951 | -1.41266 | 8403 ft | 282 kts | 136° |
| 2026-05-04 17:08 | 46.98025 | -1.37414 | 10048 ft | 285 kts | 137° |
| 2026-05-04 17:08 | 46.96519 | -1.35504 | 10799 ft | 288 kts | 139° |
| 2026-05-04 17:09 | 46.94965 | -1.33510 | 11114 ft | 309 kts | 138° |
| 2026-05-04 17:09 | 46.93311 | -1.31354 | 11518 ft | 324 kts | 138° |
| 2026-05-04 17:09 | 46.91616 | -1.29138 | 12214 ft | 330 kts | 139° |
| 2026-05-04 17:10 | 46.88165 | -1.24643 | 13665 ft | 334 kts | 139° |
| 2026-05-04 17:10 | 46.82890 | -1.17809 | 13956 ft | 342 kts | 140° |
| 2026-05-04 17:11 | 46.81111 | -1.15504 | 13959 ft | 340 kts | 140° |
| 2026-05-04 17:11 | 46.79366 | -1.13245 | 13965 ft | 339 kts | 140° |
| 2026-05-04 17:11 | 46.75837 | -1.08678 | 13963 ft | 339 kts | 140° |
| 2026-05-04 17:12 | 46.74073 | -1.06399 | 13961 ft | 339 kts | 140° |
| 2026-05-04 17:12 | 46.70514 | -1.01807 | 13962 ft | 340 kts | 140° |
| 2026-05-04 17:13 | 46.65218 | -0.94985 | 13953 ft | 341 kts | 140° |
| 2026-05-04 17:14 | 46.59880 | -0.88129 | 13949 ft | 341 kts | 140° |
| 2026-05-04 17:14 | 46.58100 | -0.85847 | 13964 ft | 342 kts | 140° |
| 2026-05-04 17:14 | 46.55082 | -0.81960 | 15014 ft | 345 kts | 140° |
| 2026-05-04 17:15 | 46.53288 | -0.79648 | 15900 ft | 345 kts | 141° |
| 2026-05-04 17:15 | 46.49649 | -0.74964 | 17353 ft | 354 kts | 141° |
| 2026-05-04 17:16 | 46.45929 | -0.70188 | 18771 ft | 360 kts | 141° |
| 2026-05-04 17:16 | 46.41182 | -0.61700 | 20806 ft | 374 kts | 121° |
| 2026-05-04 17:17 | 46.39999 | -0.58331 | 21439 ft | 377 kts | 121° |
| 2026-05-04 17:17 | 46.36427 | -0.48020 | 23279 ft | 386 kts | 121° |
| 2026-05-04 17:18 | 46.35210 | -0.44549 | 23863 ft | 387 kts | 122° |
| 2026-05-04 17:18 | 46.32754 | -0.37598 | 24943 ft | 389 kts | 122° |
| 2026-05-04 17:19 | 46.30268 | -0.30603 | 25973 ft | 392 kts | 122° |
| 2026-05-04 17:19 | 46.27760 | -0.23568 | 26961 ft | 396 kts | 122° |
| 2026-05-04 17:20 | 46.25224 | -0.16470 | 27910 ft | 399 kts | 123° |
| 2026-05-04 17:20 | 46.22661 | -0.09315 | 28826 ft | 402 kts | 123° |
| 2026-05-04 17:20 | 46.21372 | -0.05719 | 29275 ft | 404 kts | 123° |
| 2026-05-04 17:21 | 46.18771 | 0.01516 | 30036 ft | 409 kts | 122° |
| 2026-05-04 17:21 | 46.16738 | 0.09323 | 30650 ft | 420 kts | 113° |
| 2026-05-04 17:22 | 46.15887 | 0.13354 | 31061 ft | 420 kts | 113° |
| 2026-05-04 17:22 | 46.15040 | 0.17388 | 31448 ft | 420 kts | 113° |
| 2026-05-04 17:23 | 46.12449 | 0.29496 | 32536 ft | 422 kts | 114° |
| 2026-05-04 17:23 | 46.11571 | 0.33530 | 32914 ft | 422 kts | 114° |
| 2026-05-04 17:23 | 46.09801 | 0.41602 | 33561 ft | 424 kts | 114° |
| 2026-05-04 17:24 | 46.08905 | 0.45663 | 33777 ft | 427 kts | 114° |
| 2026-05-04 17:24 | 46.06196 | 0.57910 | 34632 ft | 429 kts | 114° |
| 2026-05-04 17:25 | 46.05286 | 0.62008 | 34860 ft | 431 kts | 114° |
| 2026-05-04 17:25 | 46.03456 | 0.70234 | 35386 ft | 432 kts | 113° |
| 2026-05-04 17:26 | 46.01610 | 0.78493 | 35839 ft | 435 kts | 113° |
| 2026-05-04 17:27 | 45.96936 | 0.99282 | 35900 ft | 434 kts | 114° |
| 2026-05-04 17:28 | 45.93196 | 1.15757 | 35925 ft | 435 kts | 114° |
| 2026-05-04 17:29 | 45.87500 | 1.40608 | 35906 ft | 437 kts | 114° |
| 2026-05-04 17:31 | 45.82714 | 1.61278 | 35903 ft | 436 kts | 114° |
| 2026-05-04 17:32 | 45.77891 | 1.81907 | 35919 ft | 437 kts | 114° |
| 2026-05-04 17:33 | 45.73995 | 1.98432 | 35901 ft | 438 kts | 114° |
| 2026-05-04 17:34 | 45.70067 | 2.14972 | 35915 ft | 440 kts | 114° |
| 2026-05-04 17:35 | 45.65118 | 2.35631 | 35896 ft | 441 kts | 114° |
| 2026-05-04 17:36 | 45.63120 | 2.43919 | 35913 ft | 442 kts | 114° |
| 2026-05-04 17:36 | 45.61114 | 2.52210 | 35930 ft | 442 kts | 114° |
| 2026-05-04 17:37 | 45.59097 | 2.60515 | 35917 ft | 443 kts | 114° |
| 2026-05-04 17:37 | 45.57073 | 2.68820 | 35928 ft | 443 kts | 114° |
| 2026-05-04 17:38 | 45.55047 | 2.77111 | 35916 ft | 442 kts | 114° |
| 2026-05-04 17:38 | 45.52957 | 2.85353 | 35920 ft | 440 kts | 117° |
| 2026-05-04 17:39 | 45.49348 | 2.97357 | 35925 ft | 439 kts | 119° |
| 2026-05-04 17:39 | 45.46897 | 3.05384 | 35912 ft | 437 kts | 119° |
| 2026-05-04 17:40 | 45.45686 | 3.09380 | 35436 ft | 440 kts | 119° |
| 2026-05-04 17:40 | 45.44505 | 3.13299 | 35075 ft | 435 kts | 119° |
| 2026-05-04 17:40 | 45.43302 | 3.17295 | 34693 ft | 431 kts | 120° |
| 2026-05-04 17:40 | 45.42126 | 3.21197 | 34323 ft | 427 kts | 120° |
| 2026-05-04 17:41 | 45.40957 | 3.25070 | 33956 ft | 424 kts | 120° |
| 2026-05-04 17:41 | 45.39793 | 3.28916 | 33525 ft | 422 kts | 120° |
| 2026-05-04 17:41 | 45.38637 | 3.32728 | 33121 ft | 418 kts | 120° |
| 2026-05-04 17:41 | 45.37489 | 3.36507 | 32739 ft | 414 kts | 120° |
| 2026-05-04 17:42 | 45.36365 | 3.40202 | 32384 ft | 411 kts | 120° |
| 2026-05-04 17:42 | 45.35235 | 3.43911 | 32020 ft | 407 kts | 120° |
| 2026-05-04 17:42 | 45.34113 | 3.47588 | 31661 ft | 404 kts | 119° |
| 2026-05-04 17:42 | 45.32998 | 3.51237 | 31300 ft | 401 kts | 119° |
| 2026-05-04 17:43 | 45.31892 | 3.54855 | 30953 ft | 398 kts | 120° |
| 2026-05-04 17:43 | 45.30792 | 3.58443 | 30620 ft | 395 kts | 120° |
| 2026-05-04 17:43 | 45.29697 | 3.62011 | 30278 ft | 392 kts | 120° |
| 2026-05-04 17:43 | 45.28610 | 3.65552 | 29916 ft | 390 kts | 120° |
| 2026-05-04 17:44 | 45.27528 | 3.69071 | 29512 ft | 387 kts | 120° |
| 2026-05-04 17:44 | 45.26455 | 3.72555 | 29151 ft | 383 kts | 120° |
| 2026-05-04 17:44 | 45.25360 | 3.75973 | 28786 ft | 377 kts | 124° |
| 2026-05-04 17:44 | 45.24050 | 3.79143 | 28484 ft | 369 kts | 128° |
| 2026-05-04 17:45 | 45.22646 | 3.82168 | 28143 ft | 366 kts | 130° |
| 2026-05-04 17:45 | 45.21231 | 3.85140 | 27825 ft | 362 kts | 130° |
| 2026-05-04 17:45 | 45.19835 | 3.88092 | 27530 ft | 359 kts | 130° |
| 2026-05-04 17:45 | 45.18453 | 3.91047 | 27221 ft | 361 kts | 130° |
| 2026-05-04 17:46 | 45.17068 | 3.94038 | 26913 ft | 364 kts | 129° |
| 2026-05-04 17:46 | 45.15686 | 3.97047 | 26593 ft | 364 kts | 129° |
| 2026-05-04 17:46 | 45.14315 | 4.00047 | 26272 ft | 362 kts | 129° |
| 2026-05-04 17:46 | 45.12953 | 4.03033 | 25960 ft | 360 kts | 129° |
| 2026-05-04 17:47 | 45.11597 | 4.06002 | 25642 ft | 358 kts | 129° |
| 2026-05-04 17:47 | 45.10245 | 4.08961 | 25337 ft | 357 kts | 129° |
| 2026-05-04 17:47 | 45.08902 | 4.11894 | 25027 ft | 355 kts | 129° |
| 2026-05-04 17:47 | 45.07563 | 4.14818 | 24734 ft | 353 kts | 129° |
| 2026-05-04 17:48 | 45.06232 | 4.17718 | 24438 ft | 351 kts | 128° |
| 2026-05-04 17:48 | 45.04904 | 4.20608 | 24139 ft | 350 kts | 128° |
| 2026-05-04 17:48 | 45.03520 | 4.23413 | 23810 ft | 344 kts | 138° |
| 2026-05-04 17:48 | 45.01682 | 4.25446 | 23543 ft | 332 kts | 153° |
| 2026-05-04 17:49 | 44.99702 | 4.27098 | 23210 ft | 330 kts | 155° |
| 2026-05-04 17:49 | 44.97714 | 4.28696 | 22914 ft | 328 kts | 155° |
| 2026-05-04 17:49 | 44.95737 | 4.30279 | 22610 ft | 326 kts | 155° |
| 2026-05-04 17:49 | 44.93777 | 4.31857 | 22330 ft | 323 kts | 155° |
| 2026-05-04 17:50 | 44.91834 | 4.33431 | 22063 ft | 321 kts | 154° |
| 2026-05-04 17:50 | 44.89929 | 4.34982 | 21772 ft | 320 kts | 154° |
| 2026-05-04 17:50 | 44.88003 | 4.36553 | 21494 ft | 320 kts | 154° |
| 2026-05-04 17:50 | 44.86082 | 4.38122 | 21231 ft | 319 kts | 154° |
| 2026-05-04 17:51 | 44.84134 | 4.39713 | 20941 ft | 319 kts | 154° |
| 2026-05-04 17:51 | 44.82243 | 4.41259 | 20668 ft | 318 kts | 154° |
| 2026-05-04 17:51 | 44.80327 | 4.42824 | 20416 ft | 318 kts | 154° |
| 2026-05-04 17:51 | 44.78412 | 4.44387 | 20137 ft | 319 kts | 154° |
| 2026-05-04 17:52 | 44.76492 | 4.45953 | 19851 ft | 319 kts | 154° |
| 2026-05-04 17:52 | 44.74573 | 4.47518 | 19576 ft | 319 kts | 154° |
| 2026-05-04 17:52 | 44.72653 | 4.49083 | 19299 ft | 318 kts | 154° |
| 2026-05-04 17:52 | 44.70743 | 4.50638 | 19016 ft | 317 kts | 154° |
| 2026-05-04 17:53 | 44.68838 | 4.52188 | 18756 ft | 315 kts | 154° |
| 2026-05-04 17:53 | 44.66924 | 4.53686 | 18480 ft | 313 kts | 160° |
| 2026-05-04 17:53 | 44.64854 | 4.54523 | 18202 ft | 308 kts | 171° |
| 2026-05-04 17:53 | 44.62763 | 4.55153 | 17895 ft | 307 kts | 171° |
| 2026-05-04 17:54 | 44.60688 | 4.55769 | 17608 ft | 303 kts | 171° |
| 2026-05-04 17:54 | 44.58638 | 4.56385 | 17339 ft | 299 kts | 171° |
| 2026-05-04 17:54 | 44.56614 | 4.57001 | 17058 ft | 296 kts | 171° |
| 2026-05-04 17:54 | 44.54616 | 4.57615 | 16800 ft | 292 kts | 171° |
| 2026-05-04 17:55 | 44.52636 | 4.58227 | 16561 ft | 290 kts | 171° |
| 2026-05-04 17:55 | 44.50672 | 4.58836 | 16307 ft | 288 kts | 171° |
| 2026-05-04 17:55 | 44.48718 | 4.59443 | 16064 ft | 287 kts | 171° |
| 2026-05-04 17:55 | 44.46770 | 4.60048 | 15816 ft | 286 kts | 171° |
| 2026-05-04 17:56 | 44.44825 | 4.60653 | 15570 ft | 286 kts | 171° |
| 2026-05-04 17:56 | 44.42881 | 4.61257 | 15323 ft | 286 kts | 171° |
| 2026-05-04 17:56 | 44.40935 | 4.61862 | 15059 ft | 287 kts | 171° |
| 2026-05-04 17:56 | 44.38985 | 4.62468 | 14820 ft | 287 kts | 171° |
| 2026-05-04 17:57 | 44.37028 | 4.63076 | 14583 ft | 289 kts | 171° |
| 2026-05-04 17:57 | 44.35063 | 4.63685 | 14345 ft | 290 kts | 171° |
| 2026-05-04 17:57 | 44.33096 | 4.64295 | 14105 ft | 289 kts | 171° |
| 2026-05-04 17:57 | 44.31140 | 4.64898 | 13867 ft | 287 kts | 172° |
| 2026-05-04 17:58 | 44.29171 | 4.65301 | 13609 ft | 285 kts | 177° |
| 2026-05-04 17:58 | 44.27203 | 4.65569 | 13353 ft | 283 kts | 178° |
| 2026-05-04 17:58 | 44.25269 | 4.65816 | 13084 ft | 282 kts | 177° |
| 2026-05-04 17:58 | 44.23321 | 4.66074 | 12824 ft | 281 kts | 177° |
| 2026-05-04 17:59 | 44.21375 | 4.66340 | 12564 ft | 280 kts | 176° |
| 2026-05-04 17:59 | 44.19418 | 4.66617 | 12300 ft | 278 kts | 176° |
| 2026-05-04 17:59 | 44.15606 | 4.67167 | 11814 ft | 276 kts | 176° |
| 2026-05-04 18:00 | 44.14333 | 4.67352 | 11822 ft | 269 kts | 176° |
| 2026-05-04 18:00 | 44.12489 | 4.67623 | 11794 ft | 264 kts | 175° |
| 2026-05-04 18:00 | 44.10117 | 4.68569 | 11767 ft | 274 kts | 161° |
| 2026-05-04 18:00 | 44.08344 | 4.69612 | 11404 ft | 278 kts | 160° |
| 2026-05-04 18:01 | 44.06566 | 4.70655 | 11119 ft | 277 kts | 160° |
| 2026-05-04 18:01 | 44.05361 | 4.71351 | 10918 ft | 277 kts | 160° |
| 2026-05-04 18:01 | 44.03581 | 4.72363 | 10610 ft | 276 kts | 161° |
| 2026-05-04 18:02 | 44.00052 | 4.74348 | 10118 ft | 269 kts | 161° |
| 2026-05-04 18:02 | 43.98339 | 4.75311 | 9969 ft | 264 kts | 160° |
| 2026-05-04 18:02 | 43.96625 | 4.76273 | 9671 ft | 267 kts | 160° |
| 2026-05-04 18:02 | 43.94894 | 4.77245 | 9387 ft | 269 kts | 160° |
| 2026-05-04 18:03 | 43.93176 | 4.78210 | 9097 ft | 270 kts | 160° |
| 2026-05-04 18:03 | 43.91439 | 4.79185 | 8802 ft | 269 kts | 160° |
| 2026-05-04 18:03 | 43.89704 | 4.80158 | 8516 ft | 268 kts | 160° |
| 2026-05-04 18:03 | 43.87980 | 4.81125 | 8218 ft | 266 kts | 160° |
| 2026-05-04 18:04 | 43.86288 | 4.82075 | 7939 ft | 259 kts | 160° |
| 2026-05-04 18:04 | 43.84641 | 4.82998 | 7662 ft | 252 kts | 160° |
| 2026-05-04 18:04 | 43.81422 | 4.84798 | 7138 ft | 246 kts | 160° |
| 2026-05-04 18:05 | 43.79837 | 4.85684 | 6902 ft | 245 kts | 160° |
| 2026-05-04 18:05 | 43.78270 | 4.86565 | 6697 ft | 241 kts | 159° |
| 2026-05-04 18:05 | 43.76725 | 4.87434 | 6501 ft | 238 kts | 159° |
| 2026-05-04 18:05 | 43.75200 | 4.88291 | 6319 ft | 236 kts | 159° |
| 2026-05-04 18:06 | 43.72189 | 4.89979 | 5882 ft | 228 kts | 159° |
| 2026-05-04 18:06 | 43.70738 | 4.90795 | 5672 ft | 222 kts | 159° |
| 2026-05-04 18:06 | 43.69328 | 4.91600 | 5496 ft | 217 kts | 159° |
| 2026-05-04 18:07 | 43.67962 | 4.92382 | 5331 ft | 208 kts | 159° |
| 2026-05-04 18:07 | 43.66639 | 4.93138 | 5136 ft | 203 kts | 159° |
| 2026-05-04 18:07 | 43.65349 | 4.93874 | 4954 ft | 199 kts | 158° |
| 2026-05-04 18:07 | 43.64076 | 4.94600 | 4786 ft | 197 kts | 158° |
| 2026-05-04 18:08 | 43.62818 | 4.95317 | 4601 ft | 194 kts | 158° |
| 2026-05-04 18:08 | 43.61586 | 4.96053 | 4426 ft | 192 kts | 150° |
| 2026-05-04 18:08 | 43.60646 | 4.97324 | 4366 ft | 187 kts | 129° |
| 2026-05-04 18:08 | 43.59758 | 4.98679 | 4195 ft | 194 kts | 136° |
| 2026-05-04 18:09 | 43.57888 | 5.01242 | 3714 ft | 183 kts | 134° |
| 2026-05-04 18:09 | 43.56190 | 5.03648 | 3240 ft | 167 kts | 133° |
| 2026-05-04 18:10 | 43.55397 | 5.04776 | 3017 ft | 161 kts | 132° |
| 2026-05-04 18:10 | 43.54635 | 5.05862 | 2815 ft | 155 kts | 132° |
| 2026-05-04 18:10 | 43.53906 | 5.06901 | 2595 ft | 147 kts | 131° |
| 2026-05-04 18:10 | 43.53209 | 5.07895 | 2433 ft | 145 kts | 131° |
| 2026-05-04 18:11 | 43.52505 | 5.08899 | 2229 ft | 145 kts | 132° |
| 2026-05-04 18:11 | 43.51830 | 5.09862 | 2076 ft | 133 kts | 132° |
| 2026-05-04 18:11 | 43.51216 | 5.10736 | 1897 ft | 122 kts | 132° |
| 2026-05-04 18:11 | 43.50646 | 5.11570 | 1705 ft | 119 kts | 132° |
| 2026-05-04 18:12 | 43.50079 | 5.12407 | 1506 ft | 120 kts | 132° |
| 2026-05-04 18:12 | 43.49502 | 5.13271 | 1377 ft | 125 kts | 132° |
| 2026-05-04 18:12 | 43.48902 | 5.14141 | 1269 ft | 124 kts | 134° |
| 2026-05-04 18:12 | 43.48299 | 5.14980 | 1087 ft | 122 kts | 134° |
| 2026-05-04 18:13 | 43.47689 | 5.15803 | 898 ft | 125 kts | 133° |
| 2026-05-04 18:13 | 43.47061 | 5.16649 | 683 ft | 129 kts | 133° |
| 2026-05-04 18:13 | 43.45786 | 5.18480 | 297 ft | 137 kts | 132° |
| 2026-05-04 18:14 | 43.45124 | 5.19428 | 167 ft | 136 kts | 132° |
| 2026-05-04 18:14 | 43.44479 | 5.20350 | 27 ft | 129 kts | 134° |
| 2026-05-04 18:14 | 43.43945 | 5.21112 | 30 ft | 83 kts | 134° |
| 2026-05-04 18:15 | 43.43477 | 5.21778 | 44 ft | 35 kts | 134° |
| 2026-05-04 18:15 | 43.43333 | 5.22108 | 51 ft | 6 kts | 89° |
| 2026-05-04 18:15 | 43.43333 | 5.22167 | 52 ft | 6 kts | 89° |
| 2026-05-04 18:16 | 43.43338 | 5.22223 | 51 ft | 6 kts | 74° |
| 2026-05-04 18:16 | 43.43365 | 5.22266 | 53 ft | 6 kts | 33° |
| 2026-05-04 18:16 | 43.43415 | 5.22279 | 52 ft | 9 kts | 349° |
| 2026-05-04 18:17 | 43.43551 | 5.22178 | 48 ft | 13 kts | 330° |
| 2026-05-04 18:17 | 43.43638 | 5.22108 | 45 ft | 16 kts | 331° |
| 2026-05-04 18:17 | 43.43820 | 5.21930 | 40 ft | 15 kts | 312° |
| 2026-05-04 18:18 | 43.43897 | 5.21820 | 37 ft | 16 kts | 314° |
| 2026-05-04 18:18 | 43.43966 | 5.21721 | 34 ft | 9 kts | 314° |
| 2026-05-04 18:18 | 43.44025 | 5.21698 | 33 ft | 10 kts | 25° |
| 2026-05-04 18:18 | 43.44076 | 5.21762 | 32 ft | 9 kts | 43° |
| 2026-05-04 18:19 | 43.44178 | 5.21808 | 31 ft | 8 kts | 313° |
| 2026-05-04 18:19 | 43.44199 | 5.21777 | 30 ft | 3 kts | 355° |
| 2026-05-04 18:19 | 43.44212 | 5.21788 | 30 ft | 1 kts | 58° |
| 2026-05-04 18:20 | 43.44213 | 5.21803 | 30 ft | 1 kts | 88° |
| 2026-05-04 18:20 | 43.44213 | 5.21804 | 30 ft | 0 kts | 88° |